Getafe Air Base

Airport
ICAO code: 
LEGT
Summary
ICAO Region: 
EUR
Territory: 
Location: 
,
Serving: 
Madrid
Elevation: 
2031 ft
Coordinates: 
Aerial View: 
40° 17' 38.9" N, 3° 43' 25.799" W
Metar
Observation
LEGT 240630Z 04004KT 9999 BKN048 04/00 Q1027
Station
Madrid / Getafe
Date/Time
2022-01-24 06:30:00
Wind direction
40°
Wind speed
04 kts
Lowest cloud amount
broken clouds
Temperature
4°C
Dew point
0°C
Humidity
75%
QNH
1027 hPa
Weather condition
n/a

Runways

Designator Length Width Surface Rops
05R/23L 920 30 GRE No/No
5/23 2480 60 ASP No/No
Airport map: 
Aerial View: 

SKYbrary Partners:

Safety knowledge contributed by: